Time,TemperatureF,DewpointF,PressureIn,WindDirection,WindDirectionDegrees,WindSpeedMPH,WindSpeedGustMPH,Humidity,HourlyPrecipIn,Conditions,Clouds,dailyrainin,SoftwareType,DateUTC
2015-07-27 00:00:00,78.1,69.5,29.60,West,270,0.0,0.0,75,0.00,,,0.00,WUHU216HW,2015-07-27 05:00:00,
2015-07-27 00:05:00,78.1,69.5,29.60,West,270,0.0,0.0,75,0.00,,,0.00,WUHU216HW,2015-07-27 05:05:00,
2015-07-27 00:10:00,77.9,69.3,29.60,West,270,0.0,0.0,75,0.00,,,0.00,WUHU216HW,2015-07-27 05:10:00,
2015-07-27 00:15:00,77.8,69.2,29.60,West,270,0.0,0.0,75,0.00,,,0.00,WUHU216HW,2015-07-27 05:15:00,
2015-07-27 00:20:00,77.8,69.2,29.60,West,270,0.0,0.0,75,0.00,,,0.00,WUHU216HW,2015-07-27 05:20:00,
2015-07-27 00:25:00,77.8,69.2,29.60,West,270,0.0,0.0,75,0.00,,,0.00,WUHU216HW,2015-07-27 05:25:00,
2015-07-27 00:30:00,77.6,69.0,29.60,West,270,0.0,0.0,75,0.00,,,0.00,WUHU216HW,2015-07-27 05:30:00,
2015-07-27 00:35:00,77.4,68.9,29.60,West,270,0.0,0.0,75,0.00,,,0.00,WUHU216HW,2015-07-27 05:35:00,
2015-07-27 00:40:00,77.4,68.9,29.60,West,270,0.0,0.0,75,0.00,,,0.00,WUHU216HW,2015-07-27 05:40:00,
2015-07-27 00:45:00,77.4,68.9,29.60,West,270,0.0,0.0,75,0.00,,,0.00,WUHU216HW,2015-07-27 05:45:00,
2015-07-27 00:50:00,77.2,68.7,29.60,West,270,0.0,0.0,75,0.00,,,0.00,WUHU216HW,2015-07-27 05:50:00,
2015-07-27 00:55:00,77.0,68.9,29.60,West,270,0.0,0.0,76,0.00,,,0.00,WUHU216HW,2015-07-27 05:55:00,
2015-07-27 01:00:00,76.9,68.7,29.60,West,270,0.0,0.0,76,0.00,,,0.00,WUHU216HW,2015-07-27 06:00:00,
2015-07-27 01:05:00,76.7,68.5,29.60,West,270,0.0,0.0,76,0.00,,,0.00,WUHU216HW,2015-07-27 06:05:00,
2015-07-27 01:10:00,76.7,68.5,29.60,West,270,0.0,0.0,76,0.00,,,0.00,WUHU216HW,2015-07-27 06:10:00,
2015-07-27 01:15:00,76.7,68.5,29.60,West,270,0.0,0.0,76,0.00,,,0.00,WUHU216HW,2015-07-27 06:15:00,
2015-07-27 01:20:00,76.7,68.5,29.60,West,270,0.0,0.0,76,0.00,,,0.00,WUHU216HW,2015-07-27 06:20:00,
2015-07-27 01:25:00,76.5,68.4,29.60,West,270,0.0,0.0,76,0.00,,,0.00,WUHU216HW,2015-07-27 06:25:00,
2015-07-27 01:30:00,76.3,68.2,29.60,West,270,0.0,0.0,76,0.00,,,0.00,WUHU216HW,2015-07-27 06:30:00,
2015-07-27 01:35:00,76.3,68.2,29.60,West,270,0.0,0.0,76,0.00,,,0.00,WUHU216HW,2015-07-27 06:35:00,
2015-07-27 01:40:00,76.1,68.1,29.60,West,270,0.0,0.0,76,0.00,,,0.00,WUHU216HW,2015-07-27 06:40:00,
2015-07-27 01:45:00,76.1,68.1,29.60,West,270,0.0,0.0,76,0.00,,,0.00,WUHU216HW,2015-07-27 06:45:00,
2015-07-27 01:50:00,76.1,68.1,29.60,West,270,0.0,0.0,76,0.00,,,0.00,WUHU216HW,2015-07-27 06:50:00,
2015-07-27 02:00:00,76.0,67.9,29.60,West,270,0.0,0.0,76,0.00,,,0.00,WUHU216HW,2015-07-27 07:00:00,
2015-07-27 02:05:00,76.0,67.9,29.60,West,270,0.0,0.0,76,0.00,,,0.00,WUHU216HW,2015-07-27 07:05:00,
2015-07-27 02:10:00,75.8,67.7,29.60,West,270,0.0,0.0,76,0.00,,,0.00,WUHU216HW,2015-07-27 07:10:00,
2015-07-27 02:20:00,75.8,67.7,29.60,West,270,0.0,0.0,76,0.00,,,0.00,WUHU216HW,2015-07-27 07:20:00,
2015-07-27 02:25:00,75.8,67.7,29.60,West,270,0.0,0.0,76,0.00,,,0.00,WUHU216HW,2015-07-27 07:25:00,
2015-07-27 02:30:00,75.8,67.7,29.60,West,270,0.0,0.0,76,0.00,,,0.00,WUHU216HW,2015-07-27 07:30:00,
2015-07-27 02:35:00,75.8,67.7,29.60,West,270,0.0,0.0,76,0.00,,,0.00,WUHU216HW,2015-07-27 07:35:00,
2015-07-27 02:40:00,76.0,67.9,29.60,West,270,0.0,0.0,76,0.00,,,0.00,WUHU216HW,2015-07-27 07:40:00,
2015-07-27 02:45:00,76.0,67.9,29.60,West,270,0.0,0.0,76,0.00,,,0.00,WUHU216HW,2015-07-27 07:45:00,
2015-07-27 02:50:00,76.0,67.9,29.60,West,270,0.0,0.0,76,0.00,,,0.00,WUHU216HW,2015-07-27 07:50:00,
2015-07-27 02:55:00,76.0,67.9,29.60,West,270,0.0,0.0,76,0.00,,,0.00,WUHU216HW,2015-07-27 07:55:00,
2015-07-27 03:00:00,76.0,67.9,29.60,West,270,0.0,0.0,76,0.00,,,0.00,WUHU216HW,2015-07-27 08:00:00,
2015-07-27 03:05:00,76.1,68.1,29.60,West,270,0.0,0.0,76,0.00,,,0.00,WUHU216HW,2015-07-27 08:05:00,
2015-07-27 03:10:00,76.1,68.1,29.60,West,270,0.0,0.0,76,0.00,,,0.00,WUHU216HW,2015-07-27 08:10:00,
2015-07-27 03:15:00,76.1,68.1,29.60,West,270,0.0,0.0,76,0.00,,,0.00,WUHU216HW,2015-07-27 08:15:00,
2015-07-27 03:20:00,76.0,67.9,29.59,West,270,0.0,0.0,76,0.00,,,0.00,WUHU216HW,2015-07-27 08:20:00,
2015-07-27 03:25:00,76.0,67.9,29.59,West,270,0.0,0.0,76,0.00,,,0.00,WUHU216HW,2015-07-27 08:25:00,
2015-07-27 03:35:00,76.0,67.9,29.59,West,270,0.0,0.0,76,0.00,,,0.00,WUHU216HW,2015-07-27 08:35:00,
2015-07-27 03:40:00,76.0,67.9,29.60,North,0,1.1,1.1,76,0.00,,,0.00,WUHU216HW,2015-07-27 08:40:00,
2015-07-27 03:45:00,76.0,67.9,29.60,North,0,0.4,1.1,76,0.00,,,0.00,WUHU216HW,2015-07-27 08:45:00,
2015-07-27 03:50:00,75.8,67.7,29.60,North,0,0.0,1.1,76,0.00,,,0.00,WUHU216HW,2015-07-27 08:50:00,
2015-07-27 03:55:00,75.8,67.7,29.60,North,0,0.0,0.4,76,0.00,,,0.00,WUHU216HW,2015-07-27 08:55:00,
2015-07-27 04:01:00,75.8,67.7,29.60,South,180,0.7,0.9,76,0.00,,,0.00,WUHU216HW,2015-07-27 09:01:00,
2015-07-27 04:06:00,75.6,67.2,29.60,SSW,203,0.0,1.1,75,0.00,,,0.00,WUHU216HW,2015-07-27 09:06:00,
2015-07-27 04:11:00,75.6,67.5,29.60,South,180,0.0,1.1,76,0.00,,,0.00,WUHU216HW,2015-07-27 09:11:00,
2015-07-27 04:16:00,75.6,67.5,29.60,South,180,0.0,0.0,76,0.00,,,0.00,WUHU216HW,2015-07-27 09:16:00,
2015-07-27 04:21:00,75.6,67.2,29.60,South,180,0.0,0.0,75,0.00,,,0.00,WUHU216HW,2015-07-27 09:21:00,
2015-07-27 04:26:00,75.6,67.5,29.60,South,180,0.0,0.0,76,0.00,,,0.00,WUHU216HW,2015-07-27 09:26:00,
2015-07-27 04:31:00,75.6,67.2,29.60,South,180,0.0,0.0,75,0.00,,,0.00,WUHU216HW,2015-07-27 09:31:00,
2015-07-27 04:36:00,75.6,67.2,29.60,South,180,0.0,0.2,75,0.00,,,0.00,WUHU216HW,2015-07-27 09:36:00,
2015-07-27 04:41:00,75.4,67.0,29.60,SSE,158,0.7,1.1,75,0.00,,,0.00,WUHU216HW,2015-07-27 09:41:00,
2015-07-27 04:46:00,75.4,67.0,29.60,SSE,158,0.4,1.1,75,0.00,,,0.00,WUHU216HW,2015-07-27 09:46:00,
2015-07-27 04:51:00,75.4,67.0,29.60,SSE,158,0.9,1.1,75,0.00,,,0.00,WUHU216HW,2015-07-27 09:51:00,
2015-07-27 04:56:00,75.4,67.0,29.60,SSE,158,1.1,1.6,75,0.00,,,0.00,WUHU216HW,2015-07-27 09:56:00,
2015-07-27 05:01:00,75.4,67.0,29.60,SSE,158,0.4,1.6,75,0.00,,,0.00,WUHU216HW,2015-07-27 10:01:00,
2015-07-27 05:06:00,75.4,67.0,29.59,SSE,158,0.7,1.1,75,0.00,,,0.00,WUHU216HW,2015-07-27 10:06:00,
2015-07-27 05:11:00,75.4,67.0,29.59,SSE,158,0.9,1.1,75,0.00,,,0.00,WUHU216HW,2015-07-27 10:11:00,
2015-07-27 05:16:00,75.4,67.0,29.59,SSE,158,0.4,1.1,75,0.00,,,0.00,WUHU216HW,2015-07-27 10:16:00,
2015-07-27 05:21:00,75.2,66.8,29.59,SSE,158,0.4,1.1,75,0.00,,,0.00,WUHU216HW,2015-07-27 10:21:00,
2015-07-27 05:31:00,75.2,66.8,29.59,SSE,158,0.0,0.7,75,0.00,,,0.00,WUHU216HW,2015-07-27 10:31:00,
2015-07-27 05:36:00,75.2,66.8,29.59,SSE,158,0.0,0.0,75,0.00,,,0.00,WUHU216HW,2015-07-27 10:36:00,
2015-07-27 05:41:00,75.2,66.8,29.59,SE,135,0.0,1.1,75,0.00,,,0.00,WUHU216HW,2015-07-27 10:41:00,
2015-07-27 05:46:00,75.2,66.8,29.59,SE,135,0.0,1.1,75,0.00,,,0.00,WUHU216HW,2015-07-27 10:46:00,
2015-07-27 05:51:00,75.2,66.8,29.59,SSW,203,0.0,0.9,75,0.00,,,0.00,WUHU216HW,2015-07-27 10:51:00,
2015-07-27 05:56:00,75.2,66.8,29.59,SSE,158,0.9,0.9,75,0.00,,,0.00,WUHU216HW,2015-07-27 10:56:00,
2015-07-27 06:01:00,75.2,66.8,29.60,SW,225,1.6,1.6,75,0.00,,,0.00,WUHU216HW,2015-07-27 11:01:00,
2015-07-27 06:06:00,75.2,66.8,29.60,SSW,203,0.0,1.6,75,0.00,,,0.00,WUHU216HW,2015-07-27 11:06:00,
2015-07-27 06:11:00,75.2,66.8,29.60,SSW,203,0.0,1.1,75,0.00,,,0.00,WUHU216HW,2015-07-27 11:11:00,
2015-07-27 06:16:00,75.2,66.8,29.60,SSW,203,0.0,1.1,75,0.00,,,0.00,WUHU216HW,2015-07-27 11:16:00,
2015-07-27 06:21:00,75.2,66.8,29.60,SSW,203,0.0,0.0,75,0.00,,,0.00,WUHU216HW,2015-07-27 11:21:00,
2015-07-27 06:26:00,75.2,66.8,29.60,SSW,203,0.0,0.0,75,0.00,,,0.00,WUHU216HW,2015-07-27 11:26:00,
2015-07-27 06:31:00,75.2,66.8,29.60,West,270,0.0,0.0,75,0.00,,,0.00,WUHU216HW,2015-07-27 11:31:00,
2015-07-27 06:36:00,75.6,67.2,29.61,West,270,0.0,0.0,75,0.00,,,0.00,WUHU216HW,2015-07-27 11:36:00,
2015-07-27 06:41:00,75.6,67.2,29.61,WSW,248,0.0,0.0,75,0.00,,,0.00,WUHU216HW,2015-07-27 11:41:00,
2015-07-27 06:46:00,76.3,67.8,29.61,WSW,248,0.0,0.4,75,0.00,,,0.00,WUHU216HW,2015-07-27 11:46:00,
2015-07-27 06:51:00,76.7,68.1,29.61,SSW,203,0.9,1.1,75,0.00,,,0.00,WUHU216HW,2015-07-27 11:51:00,
2015-07-27 06:56:00,77.0,68.5,29.61,WSW,248,1.1,1.6,75,0.00,,,0.00,WUHU216HW,2015-07-27 11:56:00,
2015-07-27 07:01:00,77.2,68.7,29.61,SW,225,1.1,1.6,75,0.00,,,0.00,WUHU216HW,2015-07-27 12:01:00,
2015-07-27 07:06:00,77.4,68.9,29.61,SW,225,2.5,2.5,75,0.00,,,0.00,WUHU216HW,2015-07-27 12:06:00,
2015-07-27 07:11:00,77.6,69.0,29.62,SW,225,0.9,2.5,75,0.00,,,0.00,WUHU216HW,2015-07-27 12:11:00,
2015-07-27 07:16:00,77.8,69.2,29.62,West,270,1.1,1.6,75,0.00,,,0.00,WUHU216HW,2015-07-27 12:16:00,
2015-07-27 07:21:00,78.1,69.5,29.62,WSW,248,0.4,2.0,75,0.00,,,0.00,WUHU216HW,2015-07-27 12:21:00,
2015-07-27 07:26:00,78.3,69.7,29.62,SSE,158,1.8,2.2,75,0.00,,,0.00,WUHU216HW,2015-07-27 12:26:00,
2015-07-27 07:31:00,78.7,70.0,29.62,WSW,248,0.0,2.2,75,0.00,,,0.00,WUHU216HW,2015-07-27 12:31:00,
2015-07-27 07:36:00,79.0,70.0,29.62,SW,225,0.4,1.8,74,0.00,,,0.00,WUHU216HW,2015-07-27 12:36:00,
2015-07-27 07:41:00,79.6,70.6,29.62,SSW,203,2.0,2.0,74,0.00,,,0.00,WUHU216HW,2015-07-27 12:41:00,
2015-07-27 07:46:00,79.9,70.9,29.62,WNW,293,0.0,2.0,74,0.00,,,0.00,WUHU216HW,2015-07-27 12:46:00,
2015-07-27 07:56:00,81.0,71.9,29.62,WSW,248,1.1,3.4,74,0.00,,,0.00,WUHU216HW,2015-07-27 12:56:00,
2015-07-27 08:01:00,81.2,72.1,29.62,South,180,1.1,3.4,74,0.00,,,0.00,WUHU216HW,2015-07-27 13:01:00,
2015-07-27 08:06:00,81.7,72.6,29.62,NW,315,0.7,2.5,74,0.00,,,0.00,WUHU216HW,2015-07-27 13:06:00,
2015-07-27 08:11:00,82.1,73.4,29.63,SW,225,0.4,2.7,75,0.00,,,0.00,WUHU216HW,2015-07-27 13:11:00,
2015-07-27 08:16:00,82.3,73.5,29.63,WSW,248,0.4,2.7,75,0.00,,,0.00,WUHU216HW,2015-07-27 13:16:00,
2015-07-27 08:21:00,83.2,74.4,29.63,SW,225,1.6,3.4,75,0.00,,,0.00,WUHU216HW,2015-07-27 13:21:00,
2015-07-27 08:26:00,83.9,74.7,29.63,NW,315,2.0,3.4,74,0.00,,,0.00,WUHU216HW,2015-07-27 13:26:00,
2015-07-27 08:31:00,83.7,74.5,29.63,ENE,68,1.1,2.0,74,0.00,,,0.00,WUHU216HW,2015-07-27 13:31:00,
2015-07-27 08:36:00,84.1,75.2,29.63,North,0,0.7,2.0,75,0.00,,,0.00,WUHU216HW,2015-07-27 13:36:00,
2015-07-27 08:41:00,84.8,75.6,29.63,SSW,203,1.8,1.8,74,0.00,,,0.00,WUHU216HW,2015-07-27 13:41:00,
2015-07-27 08:46:00,86.2,76.6,29.63,NW,315,0.4,2.9,73,0.00,,,0.00,WUHU216HW,2015-07-27 13:46:00,
2015-07-27 08:51:00,87.1,77.1,29.64,NNE,23,0.4,2.9,72,0.00,,,0.00,WUHU216HW,2015-07-27 13:51:00,
2015-07-27 08:56:00,86.9,76.5,29.64,NNE,23,0.4,2.2,71,0.00,,,0.00,WUHU216HW,2015-07-27 13:56:00,
2015-07-27 09:01:00,87.8,77.7,29.64,SW,225,2.0,3.1,72,0.00,,,0.00,WUHU216HW,2015-07-27 14:01:00,
2015-07-27 09:06:00,90.0,79.0,29.64,SSE,158,0.4,3.1,70,0.00,,,0.00,WUHU216HW,2015-07-27 14:06:00,
2015-07-27 09:11:00,90.0,78.0,29.64,NNW,338,0.4,2.5,68,0.00,,,0.00,WUHU216HW,2015-07-27 14:11:00,
2015-07-27 09:16:00,89.6,77.8,29.64,NNW,338,0.9,1.6,68,0.00,,,0.00,WUHU216HW,2015-07-27 14:16:00,
2015-07-27 09:21:00,89.6,78.2,29.64,WSW,248,1.8,2.0,69,0.00,,,0.00,WUHU216HW,2015-07-27 14:21:00,
2015-07-27 09:31:00,90.0,78.0,29.64,SSE,158,1.6,2.7,68,0.00,,,0.00,WUHU216HW,2015-07-27 14:31:00,
2015-07-27 09:41:00,89.1,77.2,29.64,NE,45,2.9,2.9,68,0.00,,,0.00,WUHU216HW,2015-07-27 14:41:00,
2015-07-27 09:46:00,89.3,77.4,29.64,NNE,23,1.1,2.9,68,0.00,,,0.00,WUHU216HW,2015-07-27 14:46:00,
2015-07-27 09:51:00,89.3,77.0,29.63,WNW,293,0.0,2.5,67,0.00,,,0.00,WUHU216HW,2015-07-27 14:51:00,
2015-07-27 09:56:00,90.2,78.2,29.64,SSE,158,0.4,2.7,68,0.00,,,0.00,WUHU216HW,2015-07-27 14:56:00,
2015-07-27 10:01:00,90.9,78.4,29.64,South,180,0.4,2.7,67,0.00,,,0.00,WUHU216HW,2015-07-27 15:01:00,
2015-07-27 10:06:00,91.8,77.9,29.64,SSW,203,1.3,2.2,64,0.00,,,0.00,WUHU216HW,2015-07-27 15:06:00,
2015-07-27 10:11:00,90.9,77.0,29.64,SSW,203,2.2,2.5,64,0.00,,,0.00,WUHU216HW,2015-07-27 15:11:00,
2015-07-27 10:16:00,90.4,77.0,29.64,NE,45,2.7,4.0,65,0.00,,,0.00,WUHU216HW,2015-07-27 15:16:00,
2015-07-27 10:21:00,90.5,77.1,29.64,SE,135,0.4,4.0,65,0.00,,,0.00,WUHU216HW,2015-07-27 15:21:00,
2015-07-27 10:26:00,90.0,76.7,29.64,ENE,68,0.9,3.1,65,0.00,,,0.00,WUHU216HW,2015-07-27 15:26:00,
2015-07-27 10:31:00,90.2,77.3,29.64,NNW,338,0.4,2.2,66,0.00,,,0.00,WUHU216HW,2015-07-27 15:31:00,
2015-07-27 10:36:00,90.0,77.1,29.64,North,0,1.8,4.7,66,0.00,,,0.00,WUHU216HW,2015-07-27 15:36:00,
2015-07-27 10:41:00,90.0,77.6,29.64,ENE,68,2.5,4.7,67,0.00,,,0.00,WUHU216HW,2015-07-27 15:41:00,
2015-07-27 10:46:00,89.8,77.4,29.64,NNE,23,6.3,6.3,67,0.00,,,0.00,WUHU216HW,2015-07-27 15:46:00,
2015-07-27 10:51:00,90.0,77.6,29.64,West,270,3.4,6.3,67,0.00,,,0.00,WUHU216HW,2015-07-27 15:51:00,
2015-07-27 10:56:00,89.8,77.4,29.64,North,0,1.8,6.3,67,0.00,,,0.00,WUHU216HW,2015-07-27 15:56:00,
2015-07-27 11:01:00,90.0,78.0,29.64,NNE,23,2.5,4.9,68,0.00,,,0.00,WUHU216HW,2015-07-27 16:01:00,
2015-07-27 11:06:00,90.2,77.8,29.64,NE,45,2.5,4.9,67,0.00,,,0.00,WUHU216HW,2015-07-27 16:06:00,
2015-07-27 11:11:00,90.4,78.0,29.63,NNE,23,2.0,5.8,67,0.00,,,0.00,WUHU216HW,2015-07-27 16:11:00,
2015-07-27 11:26:00,90.9,78.0,29.63,NW,315,1.1,5.8,66,0.00,,,0.00,WUHU216HW,2015-07-27 16:26:00,
2015-07-27 11:31:00,90.5,78.0,29.63,NNE,23,1.6,3.6,67,0.00,,,0.00,WUHU216HW,2015-07-27 16:31:00,
2015-07-27 11:36:00,90.7,78.2,29.63,North,0,1.6,2.5,67,0.00,,,0.00,WUHU216HW,2015-07-27 16:36:00,
2015-07-27 11:41:00,91.1,78.6,29.63,SSE,158,2.0,2.9,67,0.00,,,0.00,WUHU216HW,2015-07-27 16:41:00,
2015-07-27 11:46:00,92.0,79.4,29.62,SE,135,1.1,2.9,67,0.00,,,0.00,WUHU216HW,2015-07-27 16:46:00,
2015-07-27 11:51:00,92.9,79.8,29.62,SE,135,0.9,2.5,66,0.00,,,0.00,WUHU216HW,2015-07-27 16:51:00,
2015-07-27 11:56:00,93.6,80.1,29.62,NE,45,4.0,4.0,65,0.00,,,0.00,WUHU216HW,2015-07-27 16:56:00,
2015-07-27 12:01:00,93.4,79.5,29.62,SSW,203,0.7,4.0,64,0.00,,,0.00,WUHU216HW,2015-07-27 17:01:00,
2015-07-27 12:06:00,93.2,78.9,29.62,SSW,203,1.3,4.0,63,0.00,,,0.00,WUHU216HW,2015-07-27 17:06:00,
2015-07-27 12:11:00,92.9,78.5,29.62,NNW,338,1.1,2.0,63,0.00,,,0.00,WUHU216HW,2015-07-27 17:11:00,
2015-07-27 12:16:00,92.5,78.6,29.62,South,180,0.9,2.0,64,0.00,,,0.00,WUHU216HW,2015-07-27 17:16:00,
2015-07-27 12:21:00,93.8,80.2,29.62,ESE,113,1.1,2.5,65,0.00,,,0.00,WUHU216HW,2015-07-27 17:21:00,
2015-07-27 12:26:00,95.4,82.2,29.62,South,180,2.5,2.9,66,0.00,,,0.00,WUHU216HW,2015-07-27 17:26:00,
2015-07-27 12:31:00,96.5,81.7,29.61,SSE,158,0.4,2.9,63,0.00,,,0.00,WUHU216HW,2015-07-27 17:31:00,
2015-07-27 12:36:00,95.9,79.8,29.61,North,0,2.5,3.8,60,0.00,,,0.00,WUHU216HW,2015-07-27 17:36:00,
2015-07-27 12:41:00,94.7,79.2,29.61,NE,45,1.1,4.5,61,0.00,,,0.00,WUHU216HW,2015-07-27 17:41:00,
2015-07-27 12:46:00,93.8,78.9,29.61,North,0,1.3,4.5,62,0.00,,,0.00,WUHU216HW,2015-07-27 17:46:00,
2015-07-27 12:51:00,93.2,78.9,29.61,NNE,23,4.0,4.0,63,0.00,,,0.00,WUHU216HW,2015-07-27 17:51:00,
2015-07-27 12:56:00,92.9,78.5,29.60,NNE,23,1.8,4.0,63,0.00,,,0.00,WUHU216HW,2015-07-27 17:56:00,
2015-07-27 13:01:00,93.2,78.9,29.60,NNW,338,2.5,4.3,63,0.00,,,0.00,WUHU216HW,2015-07-27 18:01:00,
2015-07-27 13:06:00,92.9,78.9,29.60,SE,135,0.9,4.3,64,0.00,,,0.00,WUHU216HW,2015-07-27 18:06:00,
2015-07-27 13:11:00,92.0,78.0,29.60,NNE,23,0.9,4.0,64,0.00,,,0.00,WUHU216HW,2015-07-27 18:11:00,
2015-07-27 13:16:00,91.6,78.1,29.60,East,90,0.0,4.0,65,0.00,,,0.00,WUHU216HW,2015-07-27 18:16:00,
2015-07-27 13:21:00,91.4,78.4,29.60,ESE,113,1.8,2.7,66,0.00,,,0.00,WUHU216HW,2015-07-27 18:21:00,
2015-07-27 13:26:00,92.2,78.7,29.60,North,0,1.8,3.4,65,0.00,,,0.00,WUHU216HW,2015-07-27 18:26:00,
2015-07-27 13:31:00,92.9,78.9,29.60,North,0,3.8,4.7,64,0.00,,,0.00,WUHU216HW,2015-07-27 18:31:00,
2015-07-27 13:36:00,93.4,79.5,29.60,NNE,23,2.0,4.7,64,0.00,,,0.00,WUHU216HW,2015-07-27 18:36:00,
2015-07-27 13:41:00,93.6,79.1,29.60,NNE,23,3.4,4.9,63,0.00,,,0.00,WUHU216HW,2015-07-27 18:41:00,
2015-07-27 13:46:00,92.5,78.6,29.60,NE,45,2.2,4.9,64,0.00,,,0.00,WUHU216HW,2015-07-27 18:46:00,
2015-07-27 13:51:00,91.8,78.3,29.60,ENE,68,2.5,4.9,65,0.00,,,0.00,WUHU216HW,2015-07-27 18:51:00,
2015-07-27 13:56:00,91.3,77.8,29.60,NE,45,2.9,4.9,65,0.00,,,0.00,WUHU216HW,2015-07-27 18:56:00,
2015-07-27 14:01:00,90.9,78.0,29.60,NE,45,3.6,5.1,66,0.00,,,0.00,WUHU216HW,2015-07-27 19:01:00,
2015-07-27 14:06:00,90.5,77.6,29.60,NE,45,3.4,5.1,66,0.00,,,0.00,WUHU216HW,2015-07-27 19:06:00,
2015-07-27 14:11:00,90.5,78.0,29.60,NNE,23,4.0,4.0,67,0.00,,,0.00,WUHU216HW,2015-07-27 19:11:00,
2015-07-27 14:16:00,90.4,78.0,29.60,ENE,68,1.8,4.5,67,0.00,,,0.00,WUHU216HW,2015-07-27 19:16:00,
2015-07-27 14:21:00,90.5,78.6,29.60,North,0,2.5,4.5,68,0.00,,,0.00,WUHU216HW,2015-07-27 19:21:00,
2015-07-27 14:26:00,91.1,79.0,29.60,NNE,23,3.1,3.4,68,0.00,,,0.00,WUHU216HW,2015-07-27 19:26:00,
2015-07-27 14:31:00,91.8,78.8,29.60,NE,45,1.3,4.7,66,0.00,,,0.00,WUHU216HW,2015-07-27 19:31:00,
2015-07-27 14:36:00,91.8,78.8,29.60,ENE,68,4.3,4.7,66,0.00,,,0.00,WUHU216HW,2015-07-27 19:36:00,
2015-07-27 14:41:00,91.8,79.2,29.60,ENE,68,1.1,4.9,67,0.00,,,0.00,WUHU216HW,2015-07-27 19:41:00,
2015-07-27 14:46:00,91.4,78.8,29.60,NNE,23,1.8,4.9,67,0.00,,,0.00,WUHU216HW,2015-07-27 19:46:00,
2015-07-27 14:51:00,91.8,79.2,29.60,NNE,23,3.8,4.3,67,0.00,,,0.00,WUHU216HW,2015-07-27 19:51:00,
2015-07-27 14:56:00,91.8,78.8,29.59,NNE,23,1.1,4.7,66,0.00,,,0.00,WUHU216HW,2015-07-27 19:56:00,
2015-07-27 15:01:00,91.8,78.8,29.59,NW,315,0.9,4.7,66,0.00,,,0.00,WUHU216HW,2015-07-27 20:01:00,
2015-07-27 15:06:00,92.0,78.9,29.59,NNE,23,3.6,6.0,66,0.00,,,0.00,WUHU216HW,2015-07-27 20:06:00,
2015-07-27 15:11:00,92.2,78.7,29.59,NE,45,3.1,6.0,65,0.00,,,0.00,WUHU216HW,2015-07-27 20:11:00,
2015-07-27 15:16:00,92.5,79.0,29.58,NNW,338,1.1,5.1,65,0.00,,,0.00,WUHU216HW,2015-07-27 20:16:00,
2015-07-27 15:21:00,92.5,78.6,29.58,NE,45,1.6,3.6,64,0.00,,,0.00,WUHU216HW,2015-07-27 20:21:00,
2015-07-27 15:26:00,93.2,79.7,29.58,North,0,5.6,5.6,65,0.00,,,0.00,WUHU216HW,2015-07-27 20:26:00,
2015-07-27 15:31:00,93.2,79.3,29.58,NNE,23,3.6,8.5,64,0.00,,,0.00,WUHU216HW,2015-07-27 20:31:00,
2015-07-27 15:36:00,93.1,79.1,29.58,NNE,23,3.4,8.5,64,0.00,,,0.00,WUHU216HW,2015-07-27 20:36:00,
2015-07-27 15:41:00,92.5,78.6,29.58,ESE,113,1.3,6.5,64,0.00,,,0.00,WUHU216HW,2015-07-27 20:41:00,
2015-07-27 15:46:00,92.3,78.4,29.58,ENE,68,3.4,4.7,64,0.00,,,0.00,WUHU216HW,2015-07-27 20:46:00,
2015-07-27 15:51:00,92.0,78.5,29.57,North,0,0.9,4.7,65,0.00,,,0.00,WUHU216HW,2015-07-27 20:51:00,
2015-07-27 15:55:00,91.4,77.9,29.57,SE,135,0.9,3.4,65,0.00,,,0.00,WUHU216HW,2015-07-27 20:55:00,
2015-07-27 16:01:00,91.4,77.9,29.56,NNE,23,3.6,3.6,65,0.00,,,0.00,WUHU216HW,2015-07-27 21:01:00,
2015-07-27 16:06:00,91.3,78.2,29.56,ENE,68,0.7,3.6,66,0.00,,,0.00,WUHU216HW,2015-07-27 21:06:00,
2015-07-27 16:11:00,90.9,78.4,29.57,NNE,23,0.2,3.4,67,0.00,,,0.00,WUHU216HW,2015-07-27 21:11:00,
2015-07-27 16:16:00,90.4,78.0,29.56,NE,45,1.8,1.8,67,0.00,,,0.00,WUHU216HW,2015-07-27 21:16:00,
2015-07-27 16:20:00,90.2,77.8,29.56,SE,135,0.4,1.8,67,0.00,,,0.00,WUHU216HW,2015-07-27 21:20:00,
2015-07-27 16:25:00,90.4,78.0,29.56,SE,135,1.3,1.8,67,0.00,,,0.00,WUHU216HW,2015-07-27 21:25:00,
2015-07-27 16:30:00,90.2,77.8,29.56,WSW,248,0.4,1.8,67,0.00,,,0.00,WUHU216HW,2015-07-27 21:30:00,
2015-07-27 16:35:00,89.8,77.4,29.56,SW,225,3.1,4.7,67,0.00,,,0.00,WUHU216HW,2015-07-27 21:35:00,
2015-07-27 16:40:00,88.9,76.6,29.57,SSW,203,4.0,5.4,67,0.00,,,0.00,WUHU216HW,2015-07-27 21:40:00,
2015-07-27 16:45:00,86.8,74.5,29.57,WSW,248,5.8,6.9,67,0.09,,,0.09,WUHU216HW,2015-07-27 21:45:00,
2015-07-27 16:50:00,84.2,72.1,29.57,NW,315,2.5,7.6,67,0.10,,,0.10,WUHU216HW,2015-07-27 21:50:00,
2015-07-27 16:55:00,82.6,70.9,29.57,ESE,113,2.5,7.6,68,0.10,,,0.10,WUHU216HW,2015-07-27 21:55:00,
2015-07-27 17:00:00,81.9,70.3,29.59,SE,135,2.2,4.0,68,0.16,,,0.16,WUHU216HW,2015-07-27 22:00:00,
2015-07-27 17:05:00,81.0,69.9,29.59,SE,135,3.6,4.0,69,0.25,,,0.25,WUHU216HW,2015-07-27 22:05:00,
2015-07-27 17:10:00,80.3,69.7,29.58,SE,135,2.5,3.8,70,0.39,,,0.38,WUHU216HW,2015-07-27 22:10:00,
2015-07-27 17:15:00,79.6,69.3,29.57,SE,135,1.1,3.8,71,0.42,,,0.41,WUHU216HW,2015-07-27 22:15:00,
2015-07-27 17:20:00,79.0,68.8,29.58,ESE,113,0.0,2.5,71,0.44,,,0.43,WUHU216HW,2015-07-27 22:20:00,
2015-07-27 17:25:00,78.3,69.3,29.58,West,270,1.1,1.8,74,0.45,,,0.44,WUHU216HW,2015-07-27 22:25:00,
2015-07-27 17:30:00,77.8,69.2,29.60,ESE,113,1.3,1.8,75,0.47,,,0.46,WUHU216HW,2015-07-27 22:30:00,
2015-07-27 17:40:00,77.8,69.2,29.58,SSW,203,1.3,2.9,75,0.41,,,0.47,WUHU216HW,2015-07-27 22:40:00,
2015-07-27 17:45:00,77.8,69.2,29.57,South,180,1.8,2.5,75,0.39,,,0.48,WUHU216HW,2015-07-27 22:45:00,
2015-07-27 17:50:00,77.9,68.9,29.57,SW,225,1.3,3.4,74,0.39,,,0.48,WUHU216HW,2015-07-27 22:50:00,
2015-07-27 17:55:00,77.8,68.8,29.58,WNW,293,3.6,5.1,74,0.39,,,0.48,WUHU216HW,2015-07-27 22:55:00,
2015-07-27 18:00:00,77.2,68.7,29.58,SSE,158,2.0,5.1,75,0.28,,,0.49,WUHU216HW,2015-07-27 23:00:00,
2015-07-27 18:05:00,77.2,68.7,29.57,ENE,68,1.1,3.6,75,0.18,,,0.49,WUHU216HW,2015-07-27 23:05:00,
2015-07-27 18:10:00,77.0,68.5,29.57,ENE,68,0.0,2.0,75,0.09,,,0.49,WUHU216HW,2015-07-27 23:10:00,
2015-07-27 18:15:00,77.2,68.7,29.57,SE,135,0.0,1.1,75,0.08,,,0.49,WUHU216HW,2015-07-27 23:15:00,
2015-07-27 18:20:00,77.2,68.7,29.57,ESE,113,0.4,1.1,75,0.06,,,0.49,WUHU216HW,2015-07-27 23:20:00,
2015-07-27 18:25:00,77.2,68.7,29.58,East,90,1.3,2.5,75,0.04,,,0.49,WUHU216HW,2015-07-27 23:25:00,
2015-07-27 18:30:00,77.0,68.5,29.58,SSE,158,1.6,2.5,75,0.03,,,0.49,WUHU216HW,2015-07-27 23:30:00,
2015-07-27 18:35:00,77.2,68.7,29.58,NE,45,1.8,1.8,75,0.03,,,0.49,WUHU216HW,2015-07-27 23:35:00,
2015-07-27 18:40:00,77.4,68.9,29.60,SSE,158,2.5,2.9,75,0.01,,,0.49,WUHU216HW,2015-07-27 23:40:00,
2015-07-27 18:45:00,77.2,68.7,29.59,ESE,113,1.8,2.9,75,0.01,,,0.49,WUHU216HW,2015-07-27 23:45:00,
2015-07-27 18:50:00,77.2,68.7,29.59,ESE,113,0.7,2.7,75,0.01,,,0.49,WUHU216HW,2015-07-27 23:50:00,
2015-07-27 18:55:00,77.2,68.7,29.60,ESE,113,1.6,2.0,75,0.01,,,0.49,WUHU216HW,2015-07-27 23:55:00,
2015-07-27 19:00:00,77.2,68.7,29.60,NE,45,0.7,1.8,75,0.00,,,0.49,WUHU216HW,2015-07-28 00:00:00,
2015-07-27 19:05:00,77.4,68.9,29.60,ENE,68,0.4,2.0,75,0.00,,,0.49,WUHU216HW,2015-07-28 00:05:00,
2015-07-27 19:10:00,77.4,68.9,29.60,SE,135,0.0,2.0,75,0.00,,,0.49,WUHU216HW,2015-07-28 00:10:00,
2015-07-27 19:15:00,77.4,68.9,29.60,SE,135,0.0,1.1,75,0.00,,,0.49,WUHU216HW,2015-07-28 00:15:00,
2015-07-27 19:20:00,77.4,68.9,29.61,SE,135,0.0,0.0,75,0.00,,,0.49,WUHU216HW,2015-07-28 00:20:00,
2015-07-27 19:25:00,77.0,68.5,29.62,NNW,338,0.4,1.8,75,0.00,,,0.49,WUHU216HW,2015-07-28 00:25:00,
2015-07-27 19:30:00,76.9,68.3,29.62,NW,315,0.9,2.2,75,0.00,,,0.49,WUHU216HW,2015-07-28 00:30:00,
2015-07-27 19:35:00,77.0,68.5,29.62,North,0,1.3,2.2,75,0.00,,,0.49,WUHU216HW,2015-07-28 00:35:00,
2015-07-27 19:40:00,76.9,68.3,29.62,ENE,68,0.7,4.9,75,0.00,,,0.49,WUHU216HW,2015-07-28 00:40:00,
2015-07-27 19:46:00,76.9,68.3,29.62,ENE,68,2.0,4.9,75,0.00,,,0.49,WUHU216HW,2015-07-28 00:46:00,
2015-07-27 19:51:00,76.7,68.1,29.62,North,0,0.0,4.0,75,0.00,,,0.49,WUHU216HW,2015-07-28 00:51:00,
2015-07-27 19:56:00,76.5,68.0,29.62,NNE,23,1.8,4.0,75,0.00,,,0.49,WUHU216HW,2015-07-28 00:56:00,
2015-07-27 20:07:00,76.3,67.8,29.63,NNE,23,6.5,7.2,75,0.00,,,0.49,WUHU216HW,2015-07-28 01:07:00,
2015-07-27 20:12:00,76.5,68.0,29.64,NE,45,2.7,9.8,75,0.00,,,0.49,WUHU216HW,2015-07-28 01:12:00,
2015-07-27 20:17:00,76.3,67.8,29.65,North,0,3.6,9.8,75,0.00,,,0.49,WUHU216HW,2015-07-28 01:17:00,
2015-07-27 20:22:00,76.3,67.8,29.65,NE,45,6.3,9.2,75,0.00,,,0.49,WUHU216HW,2015-07-28 01:22:00,
2015-07-27 20:27:00,76.3,67.8,29.64,NNE,23,2.5,9.2,75,0.00,,,0.49,WUHU216HW,2015-07-28 01:27:00,
2015-07-27 20:32:00,76.3,67.8,29.64,NNE,23,3.6,8.5,75,0.00,,,0.49,WUHU216HW,2015-07-28 01:32:00,
2015-07-27 20:37:00,76.3,67.8,29.65,WSW,248,3.4,8.5,75,0.00,,,0.49,WUHU216HW,2015-07-28 01:37:00,
2015-07-27 20:42:00,76.3,67.8,29.67,West,270,4.9,5.4,75,0.00,,,0.49,WUHU216HW,2015-07-28 01:42:00,
2015-07-27 20:47:00,76.3,67.8,29.67,NNE,23,1.6,6.0,75,0.00,,,0.49,WUHU216HW,2015-07-28 01:47:00,
2015-07-27 20:52:00,76.3,67.8,29.67,West,270,0.4,6.0,75,0.00,,,0.49,WUHU216HW,2015-07-28 01:52:00,
2015-07-27 21:02:00,76.0,67.5,29.65,NE,45,5.8,5.8,75,0.04,,,0.54,WUHU216HW,2015-07-28 02:02:00,
2015-07-27 21:07:00,75.1,66.6,29.65,ENE,68,1.1,5.8,75,0.05,,,0.54,WUHU216HW,2015-07-28 02:07:00,
2015-07-27 21:12:00,74.5,66.5,29.65,ENE,68,4.0,5.8,76,0.05,,,0.54,WUHU216HW,2015-07-28 02:12:00,
2015-07-27 21:17:00,74.0,66.0,29.65,NE,45,1.3,4.0,76,0.05,,,0.54,WUHU216HW,2015-07-28 02:17:00,
2015-07-27 21:22:00,73.8,65.8,29.65,NE,45,4.0,6.9,76,0.05,,,0.54,WUHU216HW,2015-07-28 02:22:00,
2015-07-27 21:27:00,73.6,65.6,29.65,NE,45,2.7,6.9,76,0.05,,,0.54,WUHU216HW,2015-07-28 02:27:00,
2015-07-27 21:32:00,73.6,65.6,29.65,NE,45,2.5,6.3,76,0.05,,,0.54,WUHU216HW,2015-07-28 02:32:00,
2015-07-27 21:37:00,73.6,65.6,29.65,ENE,68,3.1,4.9,76,0.05,,,0.54,WUHU216HW,2015-07-28 02:37:00,
2015-07-27 21:42:00,73.8,65.8,29.65,NE,45,2.0,4.9,76,0.05,,,0.54,WUHU216HW,2015-07-28 02:42:00,
2015-07-27 21:47:00,73.8,65.8,29.65,NE,45,0.4,2.5,76,0.05,,,0.54,WUHU216HW,2015-07-28 02:47:00,
2015-07-27 21:52:00,73.6,65.6,29.65,NNE,23,0.9,2.5,76,0.05,,,0.54,WUHU216HW,2015-07-28 02:52:00,
2015-07-27 21:57:00,73.6,65.6,29.65,ESE,113,0.4,1.6,76,0.02,,,0.54,WUHU216HW,2015-07-28 02:57:00,